Time;durP1;ratioP1;P1;durP2;ratioP2;P2;SDS_P1;SDS_P2;PMS_P1;PMS_P2;Temp;Humidity;BMP_temperature;BMP_pressure;BME280_temperature;BME280_humidity;BME280_pressure;Samples;Min_cycle;Max_cycle;Signal;HPM_P1;HPM_P2
2022/01/20 00:01:15;;;;;;;8.50;4.95;;;;;;;3.54;84.73;100024.16;4994005;28;20140;-87
2022/01/20 00:03:42;;;;;;;8.23;4.78;;;;;;;3.58;84.96;100017.94;5012680;28;20101;-87
2022/01/20 00:09:12;;;;;;;7.57;4.85;;;;;;;3.57;84.73;100014.50;5011579;28;20137;-87
2022/01/20 00:28:10;;;;;;;9.32;4.90;;;;;;;3.63;86.16;100029.81;5015178;28;20103;-86
2022/01/20 00:33:16;;;;;;;8.98;4.90;;;;;;;3.51;87.97;100038.09;5014592;28;20032;-86
2022/01/20 00:38:20;;;;;;;9.70;5.70;;;;;;;3.42;90.03;100085.13;5014577;28;20078;-87
2022/01/20 00:40:46;;;;;;;12.70;5.47;;;;;;;3.35;90.14;100060.38;4997935;28;20593;-87
2022/01/20 00:43:11;;;;;;;12.20;6.55;;;;;;;3.29;90.83;100055.44;5014667;28;20124;-86
2022/01/20 00:45:37;;;;;;;9.00;5.70;;;;;;;3.29;90.52;100058.03;5015802;28;20018;-87
2022/01/20 00:48:02;;;;;;;10.02;5.55;;;;;;;3.26;89.82;100063.31;5015359;28;20052;-87
2022/01/20 00:50:28;;;;;;;16.15;6.70;;;;;;;3.28;90.15;100064.13;5014854;28;20032;-86
2022/01/20 00:52:53;;;;;;;10.07;5.68;;;;;;;3.26;90.15;100073.69;4998066;28;20037;-86
2022/01/20 00:55:19;;;;;;;10.57;5.80;;;;;;;3.27;90.79;100067.63;5015184;28;20522;-87
2022/01/20 00:57:44;;;;;;;9.30;5.78;;;;;;;3.27;90.86;100088.34;5009524;28;20022;-87
2022/01/20 01:00:13;;;;;;;11.65;5.25;;;;;;;3.25;90.79;100078.03;4979161;28;20466;-86
2022/01/20 01:02:40;;;;;;;9.82;5.30;;;;;;;3.25;90.66;100052.13;5011436;28;20030;-87
2022/01/20 01:05:08;;;;;;;14.68;4.95;;;;;;;3.24;89.99;100063.41;4997600;28;20034;-87
2022/01/20 01:07:51;;;;;;;14.88;6.15;;;;;;;3.21;90.24;100078.22;5014384;28;20486;-87
2022/01/20 01:10:19;;;;;;;11.25;5.60;;;;;;;3.19;90.19;100065.34;4996503;28;20564;-86
2022/01/20 01:12:51;;;;;;;9.25;4.70;;;;;;;3.21;89.98;100066.13;4996708;28;20026;-87
2022/01/20 01:15:24;;;;;;;12.68;5.35;;;;;;;3.21;89.46;100066.13;5013641;28;20050;-87
2022/01/20 01:23:19;;;;;;;12.38;4.25;;;;;;;3.30;87.43;100063.16;5015015;28;20118;-88
2022/01/20 01:25:44;;;;;;;9.95;4.03;;;;;;;3.30;87.54;100076.13;4996534;28;20133;-87
2022/01/20 01:28:10;;;;;;;14.35;4.30;;;;;;;3.29;87.19;100066.63;4995695;28;20037;-86
2022/01/20 01:33:07;;;;;;;11.98;3.90;;;;;;;3.25;86.87;100078.03;5000312;28;20038;-86
2022/01/20 01:35:38;;;;;;;15.95;4.38;;;;;;;3.18;87.11;100068.81;5013639;28;20117;-88
2022/01/20 01:40:33;;;;;;;10.07;4.28;;;;;;;2.98;87.23;100066.19;5013859;28;20072;-88
2022/01/20 01:43:06;;;;;;;15.10;3.75;;;;;;;2.86;87.35;100086.47;4995194;28;20026;-87
2022/01/20 01:45:35;;;;;;;15.95;4.07;;;;;;;2.84;86.95;100085.69;4995394;28;20371;-86
2022/01/20 01:48:02;;;;;;;15.13;3.75;;;;;;;2.81;85.52;100090.97;5011799;28;20131;-87
2022/01/20 01:50:29;;;;;;;23.40;2.70;;;;;;;2.80;84.44;100104.84;5012737;28;20108;-87
2022/01/20 01:52:56;;;;;;;16.10;3.08;;;;;;;2.85;82.27;100099.47;4995285;28;20034;-87
2022/01/20 01:55:23;;;;;;;18.35;2.95;;;;;;;2.91;81.25;100096.66;5012783;28;20029;-88
2022/01/20 01:57:48;;;;;;;23.45;3.25;;;;;;;2.89;80.10;100081.19;4995620;28;20045;-89
2022/01/20 02:00:15;;;;;;;22.60;2.72;;;;;;;2.93;79.63;100081.91;4993582;28;20366;-88
2022/01/20 02:02:42;;;;;;;20.38;3.70;;;;;;;2.90;79.49;100084.63;4994679;28;20026;-86
2022/01/20 02:05:10;;;;;;;18.60;3.15;;;;;;;2.89;79.45;100082.91;4993921;28;20153;-87
2022/01/20 02:20:51;;;;;;;14.90;2.42;;;;;;;2.51;81.97;100071.44;5012146;28;20038;-87
2022/01/20 02:23:17;;;;;;;14.02;2.15;;;;;;;2.47;82.69;100085.38;5011234;28;20042;-87
2022/01/20 02:25:42;;;;;;;9.40;2.10;;;;;;;2.44;83.34;100076.00;5011746;28;20034;-85
2022/01/20 02:28:10;;;;;;;12.43;2.92;;;;;;;2.46;83.62;100079.38;4993726;28;20495;-87
2022/01/20 02:30:37;;;;;;;11.70;2.55;;;;;;;2.45;83.95;100082.88;4995038;28;20040;-88
2022/01/20 02:33:16;;;;;;;12.68;3.13;;;;;;;2.41;84.34;100083.84;4995110;28;20100;-87
2022/01/20 02:35:45;;;;;;;11.82;2.55;;;;;;;2.39;84.96;100070.16;4994715;28;20065;-88
2022/01/20 02:38:17;;;;;;;10.40;2.20;;;;;;;2.35;84.97;100073.75;4995938;28;20045;-85
2022/01/20 02:45:55;;;;;;;9.80;3.13;;;;;;;2.22;86.19;100069.91;5008038;28;20072;-88
2022/01/20 02:48:20;;;;;;;10.93;3.80;;;;;;;2.20;86.32;100082.91;4993567;28;20438;-86
2022/01/20 02:50:46;;;;;;;11.55;3.03;;;;;;;2.19;85.85;100063.13;5011528;28;20034;-88
2022/01/20 02:53:11;;;;;;;18.77;3.45;;;;;;;2.15;85.59;100064.09;4993242;28;20092;-87
2022/01/20 02:55:37;;;;;;;14.00;3.60;;;;;;;2.13;85.67;100059.00;4993145;28;20092;-88
2022/01/20 02:58:02;;;;;;;15.85;3.70;;;;;;;2.17;84.72;100058.00;5015703;28;20033;-86
2022/01/20 03:00:29;;;;;;;13.95;3.28;;;;;;;2.20;83.84;100043.28;5010947;28;20575;-86
2022/01/20 03:02:57;;;;;;;11.02;2.65;;;;;;;2.25;82.65;100043.94;5010913;28;20034;-87
2022/01/20 03:05:23;;;;;;;9.85;2.42;;;;;;;2.27;81.99;100047.31;4984754;28;20127;-88
2022/01/20 03:07:48;;;;;;;10.98;2.38;;;;;;;2.27;81.22;100035.22;4993267;28;20133;-87
2022/01/20 03:10:16;;;;;;;24.35;3.13;;;;;;;2.31;80.67;100030.78;4992658;28;20040;-86
2022/01/20 03:12:41;;;;;;;14.40;2.53;;;;;;;2.34;80.79;100038.44;4993789;28;20516;-87
2022/01/20 03:15:07;;;;;;;15.50;2.10;;;;;;;2.34;80.58;100038.44;4992788;28;20034;-86
2022/01/20 03:17:32;;;;;;;15.85;2.55;;;;;;;2.34;80.37;100051.38;4992854;28;20053;-87
2022/01/20 03:19:59;;;;;;;12.68;1.88;;;;;;;2.36;80.14;100050.41;4993364;28;20026;-88
2022/01/20 03:22:25;;;;;;;26.85;2.60;;;;;;;2.34;79.80;100041.03;5002135;28;20056;-87
2022/01/20 03:24:51;;;;;;;17.02;3.03;;;;;;;2.31;79.94;100025.63;5011407;28;20044;-88
2022/01/20 03:27:17;;;;;;;19.67;2.58;;;;;;;2.34;79.17;100020.34;4995832;28;20109;-87
2022/01/20 03:29:42;;;;;;;22.10;2.58;;;;;;;2.36;79.13;100021.09;4993916;28;20037;-87
2022/01/20 03:32:08;;;;;;;22.65;3.42;;;;;;;2.40;78.06;100013.16;5010699;28;20351;-87
2022/01/20 03:37:56;;;;;;;14.88;2.33;;;;;;;2.50;76.45;99997.31;5012140;28;20122;-88
2022/01/20 03:40:23;;;;;;;17.63;2.75;;;;;;;2.50;76.99;100003.31;5012096;28;20065;-89
2022/01/20 03:42:49;;;;;;;16.02;3.22;;;;;;;2.46;76.86;100003.50;4993930;28;20034;-86
2022/01/20 03:45:14;;;;;;;22.63;3.50;;;;;;;2.45;77.06;100015.59;4996053;28;20026;-87
2022/01/20 03:47:40;;;;;;;21.73;3.15;;;;;;;2.48;77.30;100012.88;5015652;28;20110;-87
2022/01/20 03:50:09;;;;;;;24.13;3.30;;;;;;;2.43;77.71;99994.94;5024217;28;20413;-85
2022/01/20 03:52:35;;;;;;;13.02;2.70;;;;;;;2.39;77.89;99995.13;5005523;28;20049;-86
2022/01/20 03:55:01;;;;;;;32.72;3.40;;;;;;;2.37;78.38;99991.72;5007914;28;20048;-86
2022/01/20 03:57:27;;;;;;;21.95;3.15;;;;;;;2.38;78.01;99993.44;5027686;28;20053;-87
2022/01/20 03:59:53;;;;;;;24.88;3.88;;;;;;;2.41;78.03;99994.16;5009193;28;20049;-86
2022/01/20 04:02:18;;;;;;;28.10;3.05;;;;;;;2.36;78.22;100001.25;5010775;28;20053;-86
2022/01/20 04:04:44;;;;;;;20.92;2.78;;;;;;;2.35;78.19;99993.56;4997743;28;20045;-88
2022/01/20 04:07:09;;;;;;;13.98;2.60;;;;;;;2.36;77.63;99984.88;4997389;28;20038;-88
2022/01/20 04:09:35;;;;;;;19.02;2.75;;;;;;;2.37;77.71;99987.44;4998595;28;20491;-88
2022/01/20 04:12:00;;;;;;;16.95;2.80;;;;;;;2.41;77.84;99972.59;5015749;28;20034;-88
2022/01/20 04:14:28;;;;;;;20.08;2.53;;;;;;;2.46;77.50;99973.28;4997928;28;20026;-87
2022/01/20 04:19:22;;;;;;;18.30;2.58;;;;;;;2.51;78.11;99962.75;5020959;28;20045;-87
2022/01/20 04:21:48;;;;;;;21.83;3.47;;;;;;;2.53;78.04;99966.13;5001205;28;20036;-87
2022/01/20 04:24:14;;;;;;;23.13;3.13;;;;;;;2.56;78.56;99965.97;5003606;28;20378;-88
2022/01/20 04:26:41;;;;;;;21.63;3.22;;;;;;;2.55;78.71;99970.31;5024620;28;20092;-84
2022/01/20 04:29:08;;;;;;;15.85;3.50;;;;;;;2.58;78.77;99956.44;5012233;28;20026;-86
2022/01/20 04:31:35;;;;;;;27.58;4.50;;;;;;;2.61;79.37;99969.25;5019962;28;20114;-88
2022/01/20 04:34:02;;;;;;;14.45;2.88;;;;;;;2.62;79.57;99976.09;5015436;28;20092;-86
2022/01/20 04:36:31;;;;;;;25.85;2.90;;;;;;;2.64;79.40;99953.63;5032925;28;20073;-86
2022/01/20 04:38:59;;;;;;;27.35;3.72;;;;;;;2.65;80.13;99945.78;5031709;28;20030;-85
2022/01/20 04:41:27;;;;;;;17.80;3.10;;;;;;;2.65;79.97;99955.28;5009392;28;20049;-86
2022/01/20 04:43:53;;;;;;;11.27;2.38;;;;;;;2.65;80.37;99963.06;5001046;28;20026;-87
2022/01/20 04:57:15;;;;;;;22.88;3.58;;;;;;;2.72;81.69;99959.31;5018649;28;20117;-86
2022/01/20 04:59:42;;;;;;;20.70;3.53;;;;;;;2.74;81.90;99951.47;5016711;28;20053;-88
2022/01/20 05:02:08;;;;;;;21.65;2.88;;;;;;;2.76;81.75;99952.28;4997019;28;20143;-86
2022/01/20 05:04:34;;;;;;;17.60;3.75;;;;;;;2.88;81.98;99946.59;4999676;28;20120;-88
2022/01/20 05:07:00;;;;;;;25.73;3.15;;;;;;;2.93;81.58;99934.31;4998141;28;20411;-87
2022/01/20 05:09:26;;;;;;;22.98;2.65;;;;;;;2.98;81.42;99937.53;5018289;28;20470;-86
2022/01/20 05:12:02;;;;;;;19.23;4.03;;;;;;;3.06;80.77;99929.47;5017129;28;20041;-87
2022/01/20 05:14:29;;;;;;;19.02;2.88;;;;;;;3.13;80.37;99930.88;4993192;28;20408;-87
2022/01/20 05:16:59;;;;;;;21.15;4.35;;;;;;;3.20;80.16;99929.72;5011623;28;20070;-88
2022/01/20 05:19:27;;;;;;;23.77;2.90;;;;;;;3.19;79.81;99904.72;5008825;28;20030;-89
2022/01/20 05:21:53;;;;;;;27.30;3.60;;;;;;;3.21;80.15;99909.84;5021317;28;20026;-87
2022/01/20 05:24:22;;;;;;;20.58;3.10;;;;;;;3.22;80.16;99916.69;4999480;28;20026;-87
2022/01/20 05:26:50;;;;;;;29.42;3.38;;;;;;;3.25;79.78;99913.97;4999989;28;20466;-88
2022/01/20 05:29:15;;;;;;;16.23;3.42;;;;;;;3.26;79.98;99923.41;5016315;28;20467;-88
2022/01/20 05:31:41;;;;;;;14.75;2.95;;;;;;;3.27;79.68;99919.94;5014721;28;20034;-88
2022/01/20 05:34:06;;;;;;;26.00;3.75;;;;;;;3.30;79.54;99935.34;4997335;28;20431;-88
2022/01/20 05:36:33;;;;;;;27.48;4.10;;;;;;;3.31;79.55;99919.75;4997315;28;20037;-89
2022/01/20 05:38:59;;;;;;;23.17;3.13;;;;;;;3.26;80.12;99911.31;5014365;28;20044;-88
2022/01/20 05:41:24;;;;;;;21.17;2.65;;;;;;;3.24;80.19;99917.47;5013745;28;20054;-88
2022/01/20 05:43:56;;;;;;;26.35;3.33;;;;;;;3.24;80.03;99923.50;4996210;28;20764;-86
2022/01/20 05:46:24;;;;;;;20.50;3.70;;;;;;;3.23;80.27;99915.81;5013036;28;20048;-87
2022/01/20 05:48:51;;;;;;;12.73;2.25;;;;;;;3.21;81.08;99931.41;5013606;28;20052;-88
2022/01/20 05:51:18;;;;;;;25.95;3.58;;;;;;;3.18;82.21;99928.94;5013072;28;20038;-88
2022/01/20 05:53:46;;;;;;;21.35;4.18;;;;;;;3.11;83.49;99937.84;5013101;28;20103;-87
2022/01/20 05:56:11;;;;;;;18.33;3.55;;;;;;;3.00;85.23;99943.47;5006097;28;20037;-87
2022/01/20 05:58:37;;;;;;;25.38;2.65;;;;;;;2.90;86.51;99939.63;4996406;28;20157;-88
2022/01/20 06:01:27;;;;;;;14.23;3.67;;;;;;;2.83;88.29;99961.47;5011400;28;20137;-87
2022/01/20 06:03:56;;;;;;;23.00;3.35;;;;;;;2.75;89.25;99961.78;5002489;28;20038;-87
2022/01/20 06:06:30;;;;;;;16.63;3.13;;;;;;;2.67;89.50;99987.97;4984477;28;20041;-88
2022/01/20 06:08:59;;;;;;;21.55;3.28;;;;;;;2.58;90.62;99977.13;4994486;28;20053;-88
2022/01/20 06:11:24;;;;;;;24.60;4.47;;;;;;;2.46;92.33;99999.16;4996527;28;20050;-89
2022/01/20 06:13:50;;;;;;;12.07;2.28;;;;;;;2.30;92.18;100003.22;5014359;28;20196;-86
2022/01/20 06:16:16;;;;;;;18.92;2.78;;;;;;;2.21;93.08;100011.31;5012781;28;20049;-86
2022/01/20 06:18:56;;;;;;;14.55;3.63;;;;;;;2.09;93.85;100021.22;4995463;28;20028;-87
2022/01/20 06:21:22;;;;;;;18.80;3.25;;;;;;;1.98;94.38;99999.25;4968563;28;20038;-86
2022/01/20 06:23:48;;;;;;;13.98;2.28;;;;;;;1.96;94.30;100071.69;5014780;28;20050;-88
2022/01/20 06:26:14;;;;;;;18.52;3.90;;;;;;;1.96;94.07;99988.94;5014219;28;20034;-88
2022/01/20 06:28:40;;;;;;;8.32;1.52;;;;;;;1.93;94.74;99983.91;4998054;28;20036;-88
2022/01/20 06:31:07;;;;;;;10.23;2.20;;;;;;;1.86;94.86;99980.69;4998031;28;20140;-87
2022/01/20 06:33:35;;;;;;;9.55;2.53;;;;;;;1.81;95.14;99990.34;5000060;28;20026;-87
2022/01/20 06:36:04;;;;;;;5.28;1.48;;;;;;;1.81;94.90;99986.91;4990134;28;20042;-89
2022/01/20 06:38:29;;;;;;;10.85;1.42;;;;;;;1.83;94.38;100032.50;4988719;28;20219;-87
2022/01/20 06:40:57;;;;;;;7.10;1.95;;;;;;;1.69;94.92;100058.81;5012500;28;20041;-87
2022/01/20 06:43:23;;;;;;;10.18;2.05;;;;;;;1.52;92.96;100079.22;5004648;28;20037;-87
2022/01/20 06:45:51;;;;;;;6.32;1.65;;;;;;;1.41;92.98;100097.66;4993759;28;20026;-89
2022/01/20 06:48:17;;;;;;;11.95;2.00;;;;;;;1.27;91.24;100088.66;4997548;28;20026;-89
2022/01/20 06:50:43;;;;;;;11.30;1.50;;;;;;;1.12;90.29;100087.41;5002756;28;20048;-87
2022/01/20 06:53:12;;;;;;;19.90;3.75;;;;;;;1.05;90.36;100084.19;4996009;28;20529;-87
2022/01/20 06:55:40;;;;;;;18.27;2.45;;;;;;;1.02;90.90;100115.25;4994918;28;20320;-86
2022/01/20 06:58:17;;;;;;;11.55;1.90;;;;;;;0.99;90.65;100094.69;5012896;28;20049;-88
2022/01/20 07:00:54;;;;;;;11.52;2.33;;;;;;;0.97;89.29;100086.16;5014312;28;20172;-86
2022/01/20 07:03:22;;;;;;;10.48;1.80;;;;;;;0.96;89.35;100089.59;4995432;28;20103;-87
2022/01/20 07:05:52;;;;;;;16.30;2.45;;;;;;;0.96;88.77;100105.97;4969731;28;20422;-88
2022/01/20 07:08:18;;;;;;;18.83;3.13;;;;;;;0.99;86.44;100122.25;4992701;28;20084;-86
2022/01/20 07:10:56;;;;;;;16.00;2.72;;;;;;;1.02;86.96;100104.94;4994901;28;20394;-86
2022/01/20 07:13:24;;;;;;;10.27;2.28;;;;;;;1.06;84.83;100114.25;5004829;28;20081;-88
2022/01/20 07:15:50;;;;;;;7.95;1.90;;;;;;;1.06;83.95;100101.34;4988353;28;20112;-89
2022/01/20 07:18:19;;;;;;;12.90;1.77;;;;;;;1.07;82.65;100151.25;5012763;28;20056;-87
2022/01/20 07:20:48;;;;;;;;;;;;;;;1.05;82.23;100137.56;5012462;28;20462;-88
2022/01/20 07:23:20;;;;;;;7.95;1.73;;;;;;;1.00;82.23;100137.66;5004607;28;19992;-87
2022/01/20 07:26:14;;;;;;;6.82;1.88;;;;;;;0.98;81.54;100138.63;4984506;28;20061;-89
2022/01/20 07:28:42;;;;;;;13.55;1.90;;;;;;;0.94;82.56;100123.22;5010516;28;20513;-87
2022/01/20 07:31:12;;;;;;;7.37;1.43;;;;;;;0.95;83.12;100131.81;4998962;28;20383;-88
2022/01/20 07:33:42;;;;;;;9.23;1.92;;;;;;;0.97;83.25;100150.69;5000112;28;20029;-87
2022/01/20 07:36:08;;;;;;;10.45;1.88;;;;;;;0.96;83.44;100136.94;5015838;28;20525;-87
2022/01/20 07:38:42;;;;;;;11.23;2.03;;;;;;;1.02;83.12;100158.28;4997800;28;20187;-85
2022/01/20 07:41:17;;;;;;;10.65;2.47;;;;;;;1.04;83.22;100156.50;4991129;28;20169;-88
2022/01/20 07:43:54;;;;;;;10.57;1.75;;;;;;;1.09;81.15;100176.13;4988432;28;20120;-88
2022/01/20 07:46:24;;;;;;;17.70;2.55;;;;;;;1.16;80.78;100175.06;4998521;28;20038;-87
2022/01/20 07:48:50;;;;;;;12.75;2.08;;;;;;;1.20;79.33;100197.31;4999035;28;20457;-87
2022/01/20 07:51:16;;;;;;;10.05;1.77;;;;;;;1.18;79.65;100180.16;4999313;28;20021;-85
2022/01/20 07:53:55;;;;;;;11.77;1.95;;;;;;;1.13;80.32;100200.13;5006056;28;20034;-87
2022/01/20 07:56:44;;;;;;;10.23;1.80;;;;;;;1.06;79.44;100183.97;4999774;28;20400;-89
2022/01/20 07:59:11;;;;;;;19.42;2.67;;;;;;;1.03;79.58;100215.03;4999204;28;20339;-87
2022/01/20 08:01:41;;;;;;;;;;;;;;;0.98;78.94;100216.91;5016689;28;20026;-87
2022/01/20 08:04:17;;;;;;;10.87;1.53;;;;;;;0.94;79.21;100223.06;5015585;28;19913;-88
2022/01/20 08:06:42;;;;;;;10.48;1.75;;;;;;;0.91;78.89;100226.56;5017696;28;20266;-89
2022/01/20 08:09:16;;;;;;;9.63;1.42;;;;;;;0.91;78.70;100229.13;5015306;28;20133;-87
2022/01/20 08:11:48;;;;;;;9.18;1.77;;;;;;;0.86;77.46;100233.59;5011503;28;20114;-88
2022/01/20 08:14:19;;;;;;;10.15;1.58;;;;;;;0.88;77.73;100228.38;4978818;28;20348;-87
2022/01/20 08:17:09;;;;;;;14.55;2.55;;;;;;;0.90;76.59;100253.28;5013261;28;20041;-88
2022/01/20 08:19:43;;;;;;;9.80;1.77;;;;;;;0.91;77.03;100261.84;4983457;28;20034;-88
2022/01/20 08:22:23;;;;;;;14.05;1.90;;;;;;;0.91;76.31;100257.53;4993327;28;25759;-87
2022/01/20 08:24:52;;;;;;;10.82;2.10;;;;;;;0.98;75.81;100288.34;4999269;28;20069;-86
2022/01/20 08:27:29;;;;;;;10.18;1.83;;;;;;;1.05;75.11;100269.22;4996928;28;20117;-87
2022/01/20 08:29:57;;;;;;;10.02;2.03;;;;;;;1.07;71.28;100282.91;4997930;28;20053;-88
2022/01/20 08:32:33;;;;;;;14.95;1.58;;;;;;;1.15;72.76;100273.22;5016123;28;20026;-88
2022/01/20 08:35:04;;;;;;;19.75;2.35;;;;;;;1.18;71.16;100299.81;5017853;28;20069;-88
2022/01/20 08:37:30;;;;;;;15.38;2.53;;;;;;;1.21;72.24;100286.81;5021798;28;20080;-88
2022/01/20 08:40:14;;;;;;;14.15;1.80;;;;;;;1.24;72.80;100313.44;4993321;28;20041;-87
2022/01/20 08:42:41;;;;;;;7.78;2.05;;;;;;;1.29;71.96;100325.31;4988591;28;20056;-87
2022/01/20 08:45:14;;;;;;;11.20;1.77;;;;;;;1.29;72.08;100303.81;5016886;28;20108;-86
2022/01/20 08:47:42;;;;;;;11.52;2.72;;;;;;;1.32;71.10;100358.81;4989285;28;20063;-86
2022/01/20 08:50:08;;;;;;;13.68;2.15;;;;;;;1.34;71.06;100320.91;4978390;28;20030;-88
2022/01/20 08:53:16;;;;;;;14.57;1.77;;;;;;;1.35;69.58;100309.66;5001933;28;20056;-87
2022/01/20 08:55:44;;;;;;;10.98;1.73;;;;;;;1.38;69.89;100334.56;4984900;28;20033;-86
2022/01/20 08:58:32;;;;;;;15.60;1.90;;;;;;;1.39;69.69;100346.59;4987839;28;20123;-87
2022/01/20 09:01:03;;;;;;;15.87;2.40;;;;;;;1.39;69.75;100356.94;4971617;28;20632;-87
2022/01/20 09:03:32;;;;;;;23.00;2.97;;;;;;;1.36;70.09;100328.59;5016796;28;20266;-86
2022/01/20 09:06:06;;;;;;;;;;;;;;;1.36;70.73;100315.66;5016415;28;20037;-87
2022/01/20 09:08:33;;;;;;;12.88;2.35;;;;;;;1.37;71.10;100332.84;5016196;28;19984;-86
2022/01/20 09:11:19;;;;;;;10.93;1.80;;;;;;;1.40;69.90;100341.38;5017732;28;20026;-88
2022/01/20 09:16:29;;;;;;;9.88;2.20;;;;;;;1.42;70.97;100311.19;5016574;28;20044;-87
2022/01/20 09:18:55;;;;;;;14.15;2.17;;;;;;;1.45;71.40;100310.25;5018230;28;20034;-86
2022/01/20 09:21:22;;;;;;;11.82;2.53;;;;;;;1.48;70.98;100335.97;5016976;28;20038;-86
2022/01/20 09:23:48;;;;;;;17.60;2.88;;;;;;;1.52;71.05;100324.69;5014642;28;20026;-85
2022/01/20 09:26:14;;;;;;;11.55;2.45;;;;;;;1.55;71.14;100322.00;5016419;28;20101;-89
2022/01/20 09:28:39;;;;;;;32.45;3.50;;;;;;;1.61;70.35;100334.75;4997757;28;20038;-88
2022/01/20 09:31:06;;;;;;;15.75;2.05;;;;;;;1.65;70.36;100325.16;4996387;28;20034;-87
2022/01/20 09:33:32;;;;;;;18.40;2.33;;;;;;;1.64;70.92;100333.81;5017538;28;20036;-87
2022/01/20 09:35:58;;;;;;;10.23;1.85;;;;;;;1.65;70.69;100351.00;4997603;28;20034;-86
2022/01/20 09:38:42;;;;;;;22.92;2.17;;;;;;;1.65;69.95;100338.94;5015569;28;20556;-88
2022/01/20 09:41:37;;;;;;;14.88;2.88;;;;;;;1.64;69.32;100352.75;4991899;28;20042;-89
2022/01/20 09:44:10;;;;;;;15.43;2.83;;;;;;;1.65;69.98;100363.94;4979791;28;20123;-87
2022/01/20 09:46:41;;;;;;;17.05;3.63;;;;;;;1.68;69.50;100353.50;5015952;28;20030;-87
2022/01/20 09:49:11;;;;;;;18.45;2.58;;;;;;;1.69;70.04;100360.34;4997048;28;20044;-88
2022/01/20 09:51:46;;;;;;;10.88;2.63;;;;;;;1.72;69.59;100354.25;4996538;28;20028;-85
2022/01/20 09:54:12;;;;;;;9.45;1.95;;;;;;;1.72;69.09;100382.69;5014292;28;20050;-86
2022/01/20 09:56:38;;;;;;;26.13;2.58;;;;;;;1.76;69.38;100351.53;5014202;28;20216;-86
2022/01/20 09:59:07;;;;;;;10.00;1.80;;;;;;;1.72;69.49;100352.53;5013840;28;20042;-89
2022/01/20 10:01:58;;;;;;;20.20;2.60;;;;;;;1.72;69.16;100365.44;4999137;28;20527;-89
2022/01/20 10:04:35;;;;;;;19.83;2.88;;;;;;;1.72;69.28;100378.38;4984044;28;20034;-88
2022/01/20 10:07:08;;;;;;;15.48;2.70;;;;;;;1.74;69.99;100349.88;4996339;28;20079;-90
2022/01/20 10:09:53;;;;;;;18.23;2.75;;;;;;;1.85;70.41;100351.25;4999174;28;20422;-91
2022/01/20 10:12:30;;;;;;;15.32;3.00;;;;;;;1.92;70.09;100350.16;5014486;28;20037;-87
2022/01/20 10:15:02;;;;;;;27.73;2.88;;;;;;;1.92;69.74;100362.25;4996594;28;20100;-87
2022/01/20 10:17:31;;;;;;;20.30;3.20;;;;;;;1.99;69.83;100350.00;4965081;28;20533;-89
2022/01/20 10:20:04;;;;;;;17.27;2.53;;;;;;;1.97;68.65;100346.63;5010147;28;20064;-87
2022/01/20 10:22:39;;;;;;;26.42;2.80;;;;;;;1.97;68.40;100349.22;4998772;28;20046;-89
2022/01/20 10:25:14;;;;;;;10.95;1.77;;;;;;;1.99;68.30;100353.41;4993855;28;20117;-89
2022/01/20 10:31:15;;;;;;;12.40;2.05;;;;;;;2.06;66.87;100348.91;5013279;28;20046;-89
2022/01/20 10:33:50;;;;;;;18.58;2.33;;;;;;;2.05;67.01;100366.19;5025884;28;20048;-89
2022/01/20 10:36:18;;;;;;;15.02;2.67;;;;;;;2.07;66.95;100360.94;5004336;28;20136;-89
2022/01/20 10:39:25;;;;;;;14.43;2.85;;;;;;;2.06;67.69;100365.28;4998291;28;20545;-89
2022/01/20 10:42:03;;;;;;;15.20;3.08;;;;;;;2.06;67.26;100369.59;4998531;28;20044;-88
2022/01/20 10:45:07;;;;;;;10.45;1.63;;;;;;;2.07;66.17;100342.84;4993210;28;20040;-89
2022/01/20 10:47:39;;;;;;;14.48;2.90;;;;;;;2.12;67.14;100353.91;5014387;28;20103;-88
2022/01/20 10:50:28;;;;;;;;;;;;;;;;;;;;;
2022/01/20 10:53:17;;;;;;;15.93;2.63;;;;;;;2.25;66.76;100339.69;4990588;28;20398;-89
2022/01/20 10:55:45;;;;;;;11.90;2.38;;;;;;;2.28;66.48;100359.44;4985595;28;20041;-88
2022/01/20 10:58:22;;;;;;;18.33;3.03;;;;;;;2.25;66.57;100354.34;4983831;28;20046;-88
2022/01/20 11:00:50;;;;;;;24.13;3.35;;;;;;;2.29;66.46;100330.91;5013463;28;20053;-89
2022/01/20 11:03:17;;;;;;;14.43;2.37;;;;;;;2.32;64.31;100350.69;5013480;28;20157;-88
2022/01/20 11:05:50;;;;;;;16.98;3.38;;;;;;;2.36;65.01;100326.41;5000478;28;20272;-92
2022/01/20 11:08:16;;;;;;;13.75;3.03;;;;;;;2.37;64.82;100341.88;4997013;28;20391;-91
2022/01/20 11:10:44;;;;;;;15.38;2.67;;;;;;;2.41;65.74;100335.72;4996816;28;20112;-87
2022/01/20 11:13:26;;;;;;;;;;;;;;;;;;;;;
2022/01/20 11:15:56;;;;;;;26.90;2.80;;;;;;;2.42;64.48;100337.41;5015749;28;20121;-90
2022/01/20 11:18:30;;;;;;;25.60;3.13;;;;;;;2.46;65.56;100347.66;5014921;28;20167;-88
2022/01/20 11:21:02;;;;;;;17.50;2.85;;;;;;;2.52;66.00;100330.19;4998706;28;20082;-90
2022/01/20 11:23:44;;;;;;;20.20;2.85;;;;;;;2.53;65.72;100349.16;4999080;28;20133;-87
2022/01/20 11:26:10;;;;;;;24.75;2.80;;;;;;;2.55;65.55;100342.16;5000563;28;20053;-88
2022/01/20 11:28:35;;;;;;;20.20;3.15;;;;;;;2.49;64.36;100338.06;4968083;28;20057;-88
2022/01/20 11:31:05;;;;;;;14.48;3.35;;;;;;;2.47;63.60;100349.34;5005165;28;20176;-88
2022/01/20 11:33:44;;;;;;;22.02;3.13;;;;;;;2.48;63.18;100338.09;5007845;28;20045;-88
2022/01/20 11:36:31;;;;;;;24.15;3.60;;;;;;;2.63;63.01;100348.81;4989338;28;20086;-87
2022/01/20 11:39:04;;;;;;;24.60;3.40;;;;;;;2.84;61.96;100329.09;5011999;28;20038;-88
2022/01/20 11:42:02;;;;;;;18.20;3.28;;;;;;;2.88;61.82;100330.66;5027843;28;20475;-87
2022/01/20 11:44:31;;;;;;;13.43;2.67;;;;;;;2.85;60.77;100324.75;5020745;28;20645;-88
2022/01/20 11:47:10;;;;;;;24.15;2.60;;;;;;;2.90;61.76;100323.72;5010035;28;20037;-89
2022/01/20 11:49:40;;;;;;;23.10;3.35;;;;;;;2.92;61.37;100302.91;5030121;28;20034;-88
2022/01/20 11:52:47;;;;;;;23.38;3.47;;;;;;;2.90;61.16;100323.72;5031547;28;20061;-90
2022/01/20 11:55:26;;;;;;;17.08;2.08;;;;;;;2.80;60.81;100331.84;4937277;28;20047;-87
2022/01/20 11:58:12;;;;;;;18.67;3.58;;;;;;;2.81;60.08;100338.69;4940956;28;20095;-90
2022/01/20 12:00:45;;;;;;;14.18;2.40;;;;;;;2.76;61.21;100309.53;5014973;28;20006;-89
2022/01/20 12:03:15;;;;;;;21.55;2.50;;;;;;;2.74;59.70;100307.00;4974540;28;20526;-88
2022/01/20 12:08:59;;;;;;;24.90;2.85;;;;;;;3.09;61.08;100290.22;5000684;28;20037;-90
2022/01/20 12:11:42;;;;;;;18.08;3.40;;;;;;;3.12;60.26;100308.25;4997565;28;20402;-88
2022/01/20 12:14:34;;;;;;;;;;;;;;;;;;;;;
2022/01/20 12:17:19;;;;;;;16.48;2.72;;;;;;;3.21;58.91;100296.69;5002678;28;20045;-87
2022/01/20 12:20:11;;;;;;;21.17;4.22;;;;;;;3.29;59.24;100299.84;5000336;28;20617;-88
2022/01/20 12:23:24;;;;;;;25.17;3.50;;;;;;;3.32;58.11;100306.69;4992301;28;20030;-88
2022/01/20 12:25:51;;;;;;;19.13;2.85;;;;;;;3.30;58.67;100296.38;4994338;28;20095;-89
2022/01/20 12:28:19;;;;;;;18.27;3.88;;;;;;;3.13;58.06;100294.38;5000411;28;20041;-89
2022/01/20 12:31:15;;;;;;;;;;;;;;;;;;;;;
2022/01/20 12:33:54;;;;;;;15.05;3.05;;;;;;;3.06;57.82;100292.06;5020579;28;20410;-89
2022/01/20 12:36:28;;;;;;;19.55;2.13;;;;;;;3.02;58.57;100285.31;5017805;28;20022;-89
2022/01/20 12:39:10;;;;;;;;;;;;;;;;;;;;;
2022/01/20 12:41:40;;;;;;;16.25;3.40;;;;;;;2.97;59.23;100298.44;4991511;28;20504;-87
2022/01/20 12:44:23;;;;;;;22.45;2.75;;;;;;;3.01;58.89;100283.63;5007617;28;20038;-87
2022/01/20 12:46:57;;;;;;;24.27;3.58;;;;;;;2.96;59.05;100275.16;4986729;28;20448;-88
2022/01/20 12:49:27;;;;;;;25.08;2.25;;;;;;;2.89;58.78;100278.00;4997285;28;20116;-87
2022/01/20 12:51:55;;;;;;;13.27;2.58;;;;;;;2.86;58.47;100282.44;5011274;28;20389;-87
2022/01/20 12:54:51;;;;;;;;;;;;;;;;;;;;;
2022/01/20 12:57:19;;;;;;;21.15;2.22;;;;;;;2.85;58.91;100288.50;5008186;28;20458;-87
2022/01/20 12:59:57;;;;;;;13.30;2.13;;;;;;;2.83;58.96;100324.81;5001075;28;20387;-88
2022/01/20 13:02:28;;;;;;;17.52;2.25;;;;;;;2.79;59.25;100306.84;5002310;28;20038;-86
2022/01/20 13:04:58;;;;;;;21.80;2.55;;;;;;;2.76;59.83;100275.88;4998036;28;20033;-88
2022/01/20 13:07:24;;;;;;;17.73;2.50;;;;;;;2.79;60.64;100299.09;4989536;28;20041;-85
2022/01/20 13:10:01;;;;;;;19.33;2.40;;;;;;;2.61;65.10;100288.47;5022811;28;20442;-88
2022/01/20 13:12:41;;;;;;;21.77;2.55;;;;;;;2.41;69.03;100309.84;4993218;28;20034;-86
2022/01/20 13:15:15;;;;;;;12.65;2.00;;;;;;;2.26;71.93;100325.84;5010798;28;20048;-87